sensor_id;sensor_type;location;lat;lon;timestamp;P1;durP1;ratioP1;P2;durP2;ratioP2
27375;SDS011;14844;51.302;6.354;2022-12-10T00:01:07;109.78;;;45.38;;
27375;SDS011;14844;51.302;6.354;2022-12-10T00:03:37;104.68;;;45.08;;
27375;SDS011;14844;51.302;6.354;2022-12-10T00:06:03;103.15;;;44.60;;
27375;SDS011;14844;51.302;6.354;2022-12-10T00:08:30;113.85;;;44.83;;
27375;SDS011;14844;51.302;6.354;2022-12-10T00:10:56;101.82;;;43.60;;
27375;SDS011;14844;51.302;6.354;2022-12-10T00:13:22;108.10;;;45.13;;
27375;SDS011;14844;51.302;6.354;2022-12-10T00:15:48;93.55;;;42.60;;
27375;SDS011;14844;51.302;6.354;2022-12-10T00:18:13;103.75;;;43.58;;
27375;SDS011;14844;51.302;6.354;2022-12-10T00:20:39;96.38;;;43.20;;
27375;SDS011;14844;51.302;6.354;2022-12-10T00:23:05;88.18;;;40.92;;
27375;SDS011;14844;51.302;6.354;2022-12-10T00:25:33;92.85;;;40.97;;
27375;SDS011;14844;51.302;6.354;2022-12-10T00:27:59;100.70;;;42.83;;
27375;SDS011;14844;51.302;6.354;2022-12-10T00:30:25;92.65;;;42.58;;
27375;SDS011;14844;51.302;6.354;2022-12-10T00:32:50;97.57;;;42.83;;
27375;SDS011;14844;51.302;6.354;2022-12-10T00:35:16;93.05;;;42.40;;
27375;SDS011;14844;51.302;6.354;2022-12-10T00:37:41;94.78;;;42.13;;
27375;SDS011;14844;51.302;6.354;2022-12-10T00:40:07;101.13;;;42.15;;
27375;SDS011;14844;51.302;6.354;2022-12-10T00:42:34;81.63;;;39.35;;
27375;SDS011;14844;51.302;6.354;2022-12-10T00:44:59;98.32;;;43.08;;
27375;SDS011;14844;51.302;6.354;2022-12-10T00:47:25;93.47;;;40.85;;
27375;SDS011;14844;51.302;6.354;2022-12-10T00:49:51;94.97;;;40.10;;
27375;SDS011;14844;51.302;6.354;2022-12-10T00:52:16;86.43;;;39.72;;
27375;SDS011;14844;51.302;6.354;2022-12-10T00:54:42;88.40;;;38.42;;
27375;SDS011;14844;51.302;6.354;2022-12-10T00:57:07;93.40;;;41.50;;
27375;SDS011;14844;51.302;6.354;2022-12-10T00:59:33;86.55;;;39.70;;
27375;SDS011;14844;51.302;6.354;2022-12-10T01:01:58;90.75;;;40.55;;
27375;SDS011;14844;51.302;6.354;2022-12-10T01:04:24;93.32;;;41.60;;
27375;SDS011;14844;51.302;6.354;2022-12-10T01:06:51;93.05;;;41.00;;
27375;SDS011;14844;51.302;6.354;2022-12-10T01:09:19;86.65;;;40.00;;
27375;SDS011;14844;51.302;6.354;2022-12-10T01:11:48;89.05;;;40.03;;
27375;SDS011;14844;51.302;6.354;2022-12-10T01:14:16;81.63;;;38.40;;
27375;SDS011;14844;51.302;6.354;2022-12-10T01:16:47;89.80;;;41.50;;
27375;SDS011;14844;51.302;6.354;2022-12-10T01:19:13;88.35;;;41.45;;
27375;SDS011;14844;51.302;6.354;2022-12-10T01:21:38;91.72;;;43.40;;
27375;SDS011;14844;51.302;6.354;2022-12-10T01:24:04;109.40;;;45.40;;
27375;SDS011;14844;51.302;6.354;2022-12-10T01:26:31;105.20;;;45.42;;
27375;SDS011;14844;51.302;6.354;2022-12-10T01:28:58;111.43;;;48.15;;
27375;SDS011;14844;51.302;6.354;2022-12-10T01:31:29;100.82;;;46.63;;
27375;SDS011;14844;51.302;6.354;2022-12-10T01:33:57;106.10;;;46.13;;
27375;SDS011;14844;51.302;6.354;2022-12-10T01:36:24;113.38;;;48.83;;
27375;SDS011;14844;51.302;6.354;2022-12-10T01:38:50;97.22;;;44.40;;
27375;SDS011;14844;51.302;6.354;2022-12-10T01:41:21;116.40;;;48.40;;
27375;SDS011;14844;51.302;6.354;2022-12-10T01:43:57;113.53;;;48.60;;
27375;SDS011;14844;51.302;6.354;2022-12-10T01:46:27;125.90;;;49.25;;
27375;SDS011;14844;51.302;6.354;2022-12-10T01:48:54;123.88;;;50.30;;
27375;SDS011;14844;51.302;6.354;2022-12-10T01:51:21;114.13;;;47.83;;
27375;SDS011;14844;51.302;6.354;2022-12-10T01:53:48;123.72;;;50.47;;
27375;SDS011;14844;51.302;6.354;2022-12-10T01:56:15;120.97;;;48.65;;
27375;SDS011;14844;51.302;6.354;2022-12-10T01:58:42;133.52;;;52.35;;
27375;SDS011;14844;51.302;6.354;2022-12-10T02:09:22;131.57;;;52.67;;
27375;SDS011;14844;51.302;6.354;2022-12-10T02:12:04;126.32;;;52.25;;
27375;SDS011;14844;51.302;6.354;2022-12-10T02:15:05;132.48;;;51.50;;
27375;SDS011;14844;51.302;6.354;2022-12-10T02:23:09;118.05;;;50.78;;
27375;SDS011;14844;51.302;6.354;2022-12-10T02:25:54;126.18;;;50.55;;
27375;SDS011;14844;51.302;6.354;2022-12-10T02:33:25;128.57;;;49.58;;
27375;SDS011;14844;51.302;6.354;2022-12-10T02:35:53;125.90;;;52.30;;
27375;SDS011;14844;51.302;6.354;2022-12-10T02:38:23;131.55;;;53.05;;
27375;SDS011;14844;51.302;6.354;2022-12-10T02:40:52;126.30;;;51.58;;
27375;SDS011;14844;51.302;6.354;2022-12-10T02:43:24;127.15;;;54.22;;
27375;SDS011;14844;51.302;6.354;2022-12-10T02:45:53;136.05;;;53.67;;
27375;SDS011;14844;51.302;6.354;2022-12-10T02:48:21;133.05;;;54.88;;
27375;SDS011;14844;51.302;6.354;2022-12-10T02:50:47;129.98;;;54.53;;
27375;SDS011;14844;51.302;6.354;2022-12-10T02:53:13;123.10;;;52.70;;
27375;SDS011;14844;51.302;6.354;2022-12-10T02:58:45;133.38;;;54.92;;
27375;SDS011;14844;51.302;6.354;2022-12-10T03:04:22;146.40;;;55.72;;
27375;SDS011;14844;51.302;6.354;2022-12-10T03:07:01;136.27;;;55.03;;
27375;SDS011;14844;51.302;6.354;2022-12-10T03:09:39;139.65;;;56.63;;
27375;SDS011;14844;51.302;6.354;2022-12-10T03:12:19;141.75;;;56.50;;
27375;SDS011;14844;51.302;6.354;2022-12-10T03:14:57;144.32;;;57.00;;
27375;SDS011;14844;51.302;6.354;2022-12-10T03:17:25;148.13;;;56.13;;
27375;SDS011;14844;51.302;6.354;2022-12-10T03:19:53;138.90;;;55.88;;
27375;SDS011;14844;51.302;6.354;2022-12-10T03:22:20;144.50;;;56.65;;
27375;SDS011;14844;51.302;6.354;2022-12-10T03:24:46;140.15;;;57.15;;
27375;SDS011;14844;51.302;6.354;2022-12-10T03:27:13;146.57;;;56.97;;
27375;SDS011;14844;51.302;6.354;2022-12-10T03:29:47;134.50;;;56.20;;
27375;SDS011;14844;51.302;6.354;2022-12-10T03:32:16;139.20;;;55.13;;
27375;SDS011;14844;51.302;6.354;2022-12-10T03:34:45;143.05;;;55.25;;
27375;SDS011;14844;51.302;6.354;2022-12-10T03:37:12;128.90;;;54.17;;
27375;SDS011;14844;51.302;6.354;2022-12-10T03:39:38;128.05;;;53.20;;
27375;SDS011;14844;51.302;6.354;2022-12-10T03:42:06;129.43;;;53.63;;
27375;SDS011;14844;51.302;6.354;2022-12-10T03:44:32;128.00;;;52.78;;
27375;SDS011;14844;51.302;6.354;2022-12-10T03:47:00;116.85;;;49.78;;
27375;SDS011;14844;51.302;6.354;2022-12-10T03:49:27;114.93;;;50.47;;
27375;SDS011;14844;51.302;6.354;2022-12-10T03:51:53;108.78;;;47.45;;
27375;SDS011;14844;51.302;6.354;2022-12-10T03:54:18;112.78;;;47.33;;
27375;SDS011;14844;51.302;6.354;2022-12-10T03:56:44;113.20;;;49.53;;
27375;SDS011;14844;51.302;6.354;2022-12-10T03:59:10;104.53;;;47.38;;
27375;SDS011;14844;51.302;6.354;2022-12-10T04:01:36;104.25;;;47.00;;
27375;SDS011;14844;51.302;6.354;2022-12-10T04:04:05;124.75;;;50.75;;
27375;SDS011;14844;51.302;6.354;2022-12-10T04:06:31;112.25;;;48.50;;
27375;SDS011;14844;51.302;6.354;2022-12-10T04:08:56;103.03;;;45.40;;
27375;SDS011;14844;51.302;6.354;2022-12-10T04:11:22;107.50;;;46.80;;
27375;SDS011;14844;51.302;6.354;2022-12-10T04:13:48;126.35;;;51.53;;
27375;SDS011;14844;51.302;6.354;2022-12-10T04:16:33;109.15;;;46.45;;
27375;SDS011;14844;51.302;6.354;2022-12-10T04:19:10;119.57;;;49.53;;
27375;SDS011;14844;51.302;6.354;2022-12-10T04:21:37;133.18;;;53.53;;
27375;SDS011;14844;51.302;6.354;2022-12-10T04:24:24;123.35;;;49.17;;
27375;SDS011;14844;51.302;6.354;2022-12-10T04:27:16;131.00;;;51.60;;
27375;SDS011;14844;51.302;6.354;2022-12-10T04:29:50;125.18;;;51.03;;
27375;SDS011;14844;51.302;6.354;2022-12-10T04:32:17;117.57;;;48.47;;
27375;SDS011;14844;51.302;6.354;2022-12-10T04:34:43;123.25;;;49.80;;
27375;SDS011;14844;51.302;6.354;2022-12-10T04:37:08;117.10;;;48.78;;
27375;SDS011;14844;51.302;6.354;2022-12-10T04:39:37;121.25;;;51.42;;
27375;SDS011;14844;51.302;6.354;2022-12-10T04:42:03;120.28;;;49.63;;
27375;SDS011;14844;51.302;6.354;2022-12-10T04:44:29;122.38;;;49.30;;
27375;SDS011;14844;51.302;6.354;2022-12-10T04:46:55;129.77;;;51.47;;
27375;SDS011;14844;51.302;6.354;2022-12-10T04:49:20;145.25;;;53.60;;
27375;SDS011;14844;51.302;6.354;2022-12-10T04:51:46;146.48;;;56.03;;
27375;SDS011;14844;51.302;6.354;2022-12-10T04:54:12;148.30;;;55.65;;
27375;SDS011;14844;51.302;6.354;2022-12-10T04:56:38;157.43;;;56.70;;
27375;SDS011;14844;51.302;6.354;2022-12-10T04:59:05;159.32;;;60.33;;
27375;SDS011;14844;51.302;6.354;2022-12-10T05:01:32;149.43;;;58.67;;
27375;SDS011;14844;51.302;6.354;2022-12-10T05:04:02;163.20;;;61.58;;
27375;SDS011;14844;51.302;6.354;2022-12-10T05:08:56;161.25;;;57.40;;
27375;SDS011;14844;51.302;6.354;2022-12-10T05:11:22;164.30;;;59.33;;
27375;SDS011;14844;51.302;6.354;2022-12-10T05:13:49;172.02;;;61.17;;
27375;SDS011;14844;51.302;6.354;2022-12-10T05:16:16;170.23;;;61.38;;
27375;SDS011;14844;51.302;6.354;2022-12-10T05:18:43;169.45;;;62.80;;
27375;SDS011;14844;51.302;6.354;2022-12-10T05:21:10;172.25;;;62.75;;
27375;SDS011;14844;51.302;6.354;2022-12-10T05:23:38;169.93;;;63.85;;
27375;SDS011;14844;51.302;6.354;2022-12-10T05:28:34;164.05;;;62.60;;
27375;SDS011;14844;51.302;6.354;2022-12-10T05:31:01;159.63;;;61.00;;
27375;SDS011;14844;51.302;6.354;2022-12-10T05:33:27;160.60;;;62.83;;
27375;SDS011;14844;51.302;6.354;2022-12-10T05:35:54;159.95;;;59.30;;
27375;SDS011;14844;51.302;6.354;2022-12-10T05:38:21;163.95;;;63.90;;
27375;SDS011;14844;51.302;6.354;2022-12-10T05:40:47;157.52;;;62.28;;
27375;SDS011;14844;51.302;6.354;2022-12-10T05:43:13;155.25;;;60.85;;
27375;SDS011;14844;51.302;6.354;2022-12-10T05:45:38;161.80;;;60.92;;
27375;SDS011;14844;51.302;6.354;2022-12-10T05:48:04;161.82;;;62.72;;
27375;SDS011;14844;51.302;6.354;2022-12-10T05:50:30;167.48;;;63.00;;
27375;SDS011;14844;51.302;6.354;2022-12-10T05:52:57;169.27;;;63.15;;
27375;SDS011;14844;51.302;6.354;2022-12-10T05:55:22;154.23;;;62.10;;
27375;SDS011;14844;51.302;6.354;2022-12-10T05:57:48;166.25;;;63.92;;
27375;SDS011;14844;51.302;6.354;2022-12-10T06:00:13;171.10;;;64.18;;
27375;SDS011;14844;51.302;6.354;2022-12-10T06:02:39;168.90;;;63.05;;
27375;SDS011;14844;51.302;6.354;2022-12-10T06:05:05;160.43;;;62.60;;
27375;SDS011;14844;51.302;6.354;2022-12-10T06:07:31;162.85;;;62.50;;
27375;SDS011;14844;51.302;6.354;2022-12-10T06:09:56;186.30;;;66.05;;
27375;SDS011;14844;51.302;6.354;2022-12-10T06:12:22;174.23;;;65.20;;
27375;SDS011;14844;51.302;6.354;2022-12-10T06:14:47;174.88;;;62.22;;
27375;SDS011;14844;51.302;6.354;2022-12-10T06:17:13;173.20;;;65.50;;
27375;SDS011;14844;51.302;6.354;2022-12-10T06:19:38;187.45;;;65.65;;
27375;SDS011;14844;51.302;6.354;2022-12-10T06:22:04;171.50;;;64.60;;
27375;SDS011;14844;51.302;6.354;2022-12-10T06:24:30;187.85;;;67.13;;
27375;SDS011;14844;51.302;6.354;2022-12-10T06:26:55;203.07;;;68.20;;
27375;SDS011;14844;51.302;6.354;2022-12-10T06:29:21;201.20;;;68.85;;
27375;SDS011;14844;51.302;6.354;2022-12-10T06:31:46;205.32;;;69.35;;
27375;SDS011;14844;51.302;6.354;2022-12-10T06:34:15;205.43;;;69.40;;
27375;SDS011;14844;51.302;6.354;2022-12-10T06:36:43;189.32;;;65.35;;
27375;SDS011;14844;51.302;6.354;2022-12-10T06:39:14;201.75;;;67.30;;
27375;SDS011;14844;51.302;6.354;2022-12-10T06:41:40;200.35;;;68.82;;
27375;SDS011;14844;51.302;6.354;2022-12-10T06:44:09;209.98;;;69.45;;
27375;SDS011;14844;51.302;6.354;2022-12-10T06:46:35;203.63;;;69.05;;
27375;SDS011;14844;51.302;6.354;2022-12-10T06:49:01;201.70;;;69.20;;
27375;SDS011;14844;51.302;6.354;2022-12-10T06:51:28;200.02;;;69.38;;
27375;SDS011;14844;51.302;6.354;2022-12-10T06:53:53;189.93;;;66.90;;
27375;SDS011;14844;51.302;6.354;2022-12-10T06:56:19;185.18;;;63.67;;
27375;SDS011;14844;51.302;6.354;2022-12-10T06:58:45;192.55;;;68.65;;
27375;SDS011;14844;51.302;6.354;2022-12-10T07:01:21;200.27;;;71.40;;
27375;SDS011;14844;51.302;6.354;2022-12-10T07:03:52;198.48;;;72.90;;
27375;SDS011;14844;51.302;6.354;2022-12-10T07:06:19;190.02;;;68.65;;
27375;SDS011;14844;51.302;6.354;2022-12-10T07:08:46;183.02;;;68.88;;
27375;SDS011;14844;51.302;6.354;2022-12-10T07:11:12;179.45;;;64.55;;
27375;SDS011;14844;51.302;6.354;2022-12-10T07:13:39;177.45;;;64.50;;
27375;SDS011;14844;51.302;6.354;2022-12-10T07:16:12;153.73;;;61.35;;
27375;SDS011;14844;51.302;6.354;2022-12-10T07:18:45;168.35;;;63.72;;
27375;SDS011;14844;51.302;6.354;2022-12-10T07:21:12;162.00;;;62.05;;
27375;SDS011;14844;51.302;6.354;2022-12-10T07:23:39;177.32;;;66.65;;
27375;SDS011;14844;51.302;6.354;2022-12-10T07:26:05;178.55;;;68.18;;
27375;SDS011;14844;51.302;6.354;2022-12-10T07:28:33;184.52;;;69.00;;
27375;SDS011;14844;51.302;6.354;2022-12-10T07:31:06;171.43;;;66.05;;
27375;SDS011;14844;51.302;6.354;2022-12-10T07:33:33;176.38;;;63.83;;
27375;SDS011;14844;51.302;6.354;2022-12-10T07:35:59;173.02;;;68.30;;
27375;SDS011;14844;51.302;6.354;2022-12-10T07:38:28;166.73;;;62.97;;
27375;SDS011;14844;51.302;6.354;2022-12-10T07:40:54;157.45;;;58.45;;
27375;SDS011;14844;51.302;6.354;2022-12-10T07:43:19;163.90;;;61.72;;
27375;SDS011;14844;51.302;6.354;2022-12-10T07:45:45;160.25;;;59.85;;
27375;SDS011;14844;51.302;6.354;2022-12-10T07:48:10;159.98;;;58.00;;
27375;SDS011;14844;51.302;6.354;2022-12-10T07:50:36;144.00;;;53.78;;
27375;SDS011;14844;51.302;6.354;2022-12-10T07:53:02;154.07;;;56.90;;
27375;SDS011;14844;51.302;6.354;2022-12-10T07:55:27;141.63;;;57.63;;
27375;SDS011;14844;51.302;6.354;2022-12-10T07:57:53;149.23;;;57.20;;
27375;SDS011;14844;51.302;6.354;2022-12-10T08:00:18;152.38;;;57.03;;
27375;SDS011;14844;51.302;6.354;2022-12-10T08:02:44;143.80;;;53.83;;
27375;SDS011;14844;51.302;6.354;2022-12-10T08:05:10;140.90;;;55.05;;
27375;SDS011;14844;51.302;6.354;2022-12-10T08:07:36;154.25;;;57.85;;
27375;SDS011;14844;51.302;6.354;2022-12-10T08:10:01;150.25;;;56.38;;
27375;SDS011;14844;51.302;6.354;2022-12-10T08:12:27;144.40;;;54.72;;
27375;SDS011;14844;51.302;6.354;2022-12-10T08:14:53;142.35;;;55.90;;
27375;SDS011;14844;51.302;6.354;2022-12-10T08:17:18;139.23;;;53.17;;
27375;SDS011;14844;51.302;6.354;2022-12-10T08:19:44;137.95;;;53.72;;
27375;SDS011;14844;51.302;6.354;2022-12-10T08:22:09;139.45;;;55.42;;
27375;SDS011;14844;51.302;6.354;2022-12-10T08:24:35;123.93;;;50.13;;
27375;SDS011;14844;51.302;6.354;2022-12-10T08:27:01;139.50;;;54.78;;
27375;SDS011;14844;51.302;6.354;2022-12-10T08:29:26;143.23;;;54.88;;
27375;SDS011;14844;51.302;6.354;2022-12-10T08:31:52;133.05;;;53.53;;
27375;SDS011;14844;51.302;6.354;2022-12-10T08:34:18;125.88;;;52.88;;
27375;SDS011;14844;51.302;6.354;2022-12-10T08:36:44;128.60;;;53.28;;
27375;SDS011;14844;51.302;6.354;2022-12-10T08:39:10;137.55;;;52.95;;
27375;SDS011;14844;51.302;6.354;2022-12-10T08:41:40;127.60;;;52.33;;
27375;SDS011;14844;51.302;6.354;2022-12-10T08:44:06;136.20;;;53.83;;
27375;SDS011;14844;51.302;6.354;2022-12-10T08:46:32;134.05;;;55.08;;
27375;SDS011;14844;51.302;6.354;2022-12-10T08:49:04;133.30;;;54.67;;
27375;SDS011;14844;51.302;6.354;2022-12-10T08:51:32;131.95;;;54.00;;
27375;SDS011;14844;51.302;6.354;2022-12-10T08:53:57;131.32;;;52.65;;
27375;SDS011;14844;51.302;6.354;2022-12-10T08:56:23;132.50;;;52.05;;
27375;SDS011;14844;51.302;6.354;2022-12-10T08:58:49;133.25;;;55.45;;
27375;SDS011;14844;51.302;6.354;2022-12-10T09:01:15;126.53;;;53.63;;
27375;SDS011;14844;51.302;6.354;2022-12-10T09:03:42;128.23;;;53.00;;
27375;SDS011;14844;51.302;6.354;2022-12-10T09:06:11;128.45;;;54.08;;
27375;SDS011;14844;51.302;6.354;2022-12-10T09:11:08;123.70;;;53.55;;
27375;SDS011;14844;51.302;6.354;2022-12-10T09:13:36;120.07;;;50.35;;
27375;SDS011;14844;51.302;6.354;2022-12-10T09:16:02;120.75;;;50.38;;
27375;SDS011;14844;51.302;6.354;2022-12-10T09:18:28;126.47;;;56.58;;
27375;SDS011;14844;51.302;6.354;2022-12-10T09:20:53;120.22;;;50.65;;
27375;SDS011;14844;51.302;6.354;2022-12-10T09:23:19;116.15;;;51.13;;
27375;SDS011;14844;51.302;6.354;2022-12-10T09:25:44;117.55;;;50.83;;
27375;SDS011;14844;51.302;6.354;2022-12-10T09:28:10;116.95;;;50.55;;
27375;SDS011;14844;51.302;6.354;2022-12-10T09:30:36;104.22;;;47.22;;
27375;SDS011;14844;51.302;6.354;2022-12-10T09:33:03;110.72;;;47.65;;
27375;SDS011;14844;51.302;6.354;2022-12-10T09:35:29;104.68;;;46.83;;
27375;SDS011;14844;51.302;6.354;2022-12-10T09:37:55;113.05;;;49.25;;
27375;SDS011;14844;51.302;6.354;2022-12-10T09:40:35;116.85;;;48.78;;
27375;SDS011;14844;51.302;6.354;2022-12-10T09:51:31;120.10;;;51.50;;
27375;SDS011;14844;51.302;6.354;2022-12-10T09:54:02;118.60;;;50.00;;
27375;SDS011;14844;51.302;6.354;2022-12-10T09:56:40;118.78;;;49.53;;
27375;SDS011;14844;51.302;6.354;2022-12-10T09:59:20;110.75;;;48.75;;
27375;SDS011;14844;51.302;6.354;2022-12-10T10:01:51;113.25;;;49.70;;
27375;SDS011;14844;51.302;6.354;2022-12-10T10:04:42;105.35;;;47.22;;
27375;SDS011;14844;51.302;6.354;2022-12-10T10:07:10;103.03;;;46.03;;
27375;SDS011;14844;51.302;6.354;2022-12-10T10:09:54;100.72;;;44.92;;
27375;SDS011;14844;51.302;6.354;2022-12-10T10:12:50;110.50;;;46.25;;
27375;SDS011;14844;51.302;6.354;2022-12-10T10:15:22;110.68;;;46.28;;
27375;SDS011;14844;51.302;6.354;2022-12-10T10:17:53;109.20;;;47.72;;
27375;SDS011;14844;51.302;6.354;2022-12-10T10:20:21;104.00;;;46.00;;
27375;SDS011;14844;51.302;6.354;2022-12-10T10:22:47;103.70;;;45.95;;
27375;SDS011;14844;51.302;6.354;2022-12-10T10:25:16;102.43;;;45.67;;
27375;SDS011;14844;51.302;6.354;2022-12-10T10:27:43;104.57;;;47.17;;
27375;SDS011;14844;51.302;6.354;2022-12-10T10:30:16;111.10;;;48.17;;
27375;SDS011;14844;51.302;6.354;2022-12-10T10:32:45;101.78;;;45.88;;
27375;SDS011;14844;51.302;6.354;2022-12-10T10:35:23;106.28;;;46.28;;
27375;SDS011;14844;51.302;6.354;2022-12-10T10:38:01;108.28;;;45.58;;
27375;SDS011;14844;51.302;6.354;2022-12-10T10:40:32;100.95;;;44.58;;
27375;SDS011;14844;51.302;6.354;2022-12-10T10:43:14;104.75;;;45.60;;
27375;SDS011;14844;51.302;6.354;2022-12-10T10:45:53;104.03;;;45.30;;
27375;SDS011;14844;51.302;6.354;2022-12-10T10:48:23;98.93;;;44.38;;
27375;SDS011;14844;51.302;6.354;2022-12-10T10:50:54;88.80;;;42.30;;
27375;SDS011;14844;51.302;6.354;2022-12-10T10:56:05;105.85;;;46.35;;
27375;SDS011;14844;51.302;6.354;2022-12-10T11:01:52;101.80;;;45.08;;
27375;SDS011;14844;51.302;6.354;2022-12-10T11:05:06;88.00;;;43.20;;
27375;SDS011;14844;51.302;6.354;2022-12-10T11:07:22;102.28;;;46.50;;
27375;SDS011;14844;51.302;6.354;2022-12-10T11:10:21;89.72;;;43.88;;
27375;SDS011;14844;51.302;6.354;2022-12-10T11:12:56;94.65;;;44.88;;
27375;SDS011;14844;51.302;6.354;2022-12-10T11:15:31;89.25;;;44.08;;
27375;SDS011;14844;51.302;6.354;2022-12-10T11:18:20;107.95;;;53.00;;
27375;SDS011;14844;51.302;6.354;2022-12-10T11:21:15;98.50;;;47.97;;
27375;SDS011;14844;51.302;6.354;2022-12-10T11:29:02;96.15;;;45.78;;
27375;SDS011;14844;51.302;6.354;2022-12-10T11:40:30;98.60;;;47.28;;
27375;SDS011;14844;51.302;6.354;2022-12-10T11:46:13;94.45;;;46.13;;
27375;SDS011;14844;51.302;6.354;2022-12-10T11:49:04;98.55;;;48.90;;
27375;SDS011;14844;51.302;6.354;2022-12-10T11:52:12;94.30;;;47.17;;
27375;SDS011;14844;51.302;6.354;2022-12-10T11:57:41;103.45;;;49.95;;
27375;SDS011;14844;51.302;6.354;2022-12-10T12:08:12;105.07;;;49.50;;
27375;SDS011;14844;51.302;6.354;2022-12-10T12:10:57;103.88;;;50.67;;
27375;SDS011;14844;51.302;6.354;2022-12-10T12:13:34;105.18;;;49.38;;
27375;SDS011;14844;51.302;6.354;2022-12-10T12:16:20;96.25;;;49.80;;
27375;SDS011;14844;51.302;6.354;2022-12-10T12:19:15;105.22;;;50.42;;
27375;SDS011;14844;51.302;6.354;2022-12-10T12:21:43;99.15;;;48.05;;
27375;SDS011;14844;51.302;6.354;2022-12-10T12:24:16;100.50;;;50.38;;
27375;SDS011;14844;51.302;6.354;2022-12-10T12:26:48;96.10;;;48.17;;
27375;SDS011;14844;51.302;6.354;2022-12-10T12:31:54;104.88;;;49.28;;
27375;SDS011;14844;51.302;6.354;2022-12-10T12:34:26;97.30;;;49.28;;
27375;SDS011;14844;51.302;6.354;2022-12-10T12:36:57;100.93;;;49.55;;
27375;SDS011;14844;51.302;6.354;2022-12-10T12:39:28;103.55;;;50.67;;
27375;SDS011;14844;51.302;6.354;2022-12-10T12:42:22;101.80;;;49.20;;
27375;SDS011;14844;51.302;6.354;2022-12-10T12:45:10;96.55;;;47.20;;
27375;SDS011;14844;51.302;6.354;2022-12-10T12:50:23;106.57;;;51.97;;
27375;SDS011;14844;51.302;6.354;2022-12-10T12:53:14;103.93;;;50.70;;
27375;SDS011;14844;51.302;6.354;2022-12-10T12:55:46;110.38;;;52.10;;
27375;SDS011;14844;51.302;6.354;2022-12-10T12:58:31;105.22;;;52.60;;
27375;SDS011;14844;51.302;6.354;2022-12-10T13:04:05;107.72;;;53.42;;
27375;SDS011;14844;51.302;6.354;2022-12-10T13:06:33;111.20;;;54.05;;
27375;SDS011;14844;51.302;6.354;2022-12-10T13:11:42;115.40;;;57.35;;
27375;SDS011;14844;51.302;6.354;2022-12-10T13:14:12;117.15;;;57.72;;
27375;SDS011;14844;51.302;6.354;2022-12-10T13:19:16;106.22;;;52.85;;
27375;SDS011;14844;51.302;6.354;2022-12-10T13:29:54;111.05;;;54.42;;
27375;SDS011;14844;51.302;6.354;2022-12-10T13:37:37;110.90;;;54.92;;
27375;SDS011;14844;51.302;6.354;2022-12-10T13:48:50;114.15;;;54.88;;
27375;SDS011;14844;51.302;6.354;2022-12-10T13:51:20;114.43;;;56.10;;
27375;SDS011;14844;51.302;6.354;2022-12-10T13:54:11;126.03;;;58.53;;
27375;SDS011;14844;51.302;6.354;2022-12-10T13:56:48;110.97;;;55.80;;
27375;SDS011;14844;51.302;6.354;2022-12-10T13:59:43;121.32;;;59.08;;
27375;SDS011;14844;51.302;6.354;2022-12-10T14:05:12;124.85;;;58.83;;
27375;SDS011;14844;51.302;6.354;2022-12-10T14:07:39;124.75;;;61.95;;
27375;SDS011;14844;51.302;6.354;2022-12-10T14:10:12;135.13;;;67.22;;
27375;SDS011;14844;51.302;6.354;2022-12-10T14:12:41;139.80;;;68.80;;
27375;SDS011;14844;51.302;6.354;2022-12-10T14:15:14;121.32;;;61.17;;
27375;SDS011;14844;51.302;6.354;2022-12-10T14:17:48;130.63;;;64.78;;
27375;SDS011;14844;51.302;6.354;2022-12-10T14:20:22;126.10;;;60.55;;
27375;SDS011;14844;51.302;6.354;2022-12-10T14:22:51;127.10;;;57.95;;
27375;SDS011;14844;51.302;6.354;2022-12-10T14:25:20;113.15;;;55.33;;
27375;SDS011;14844;51.302;6.354;2022-12-10T14:27:48;120.07;;;55.92;;
27375;SDS011;14844;51.302;6.354;2022-12-10T14:30:20;123.75;;;57.58;;
27375;SDS011;14844;51.302;6.354;2022-12-10T14:32:47;131.60;;;60.22;;
27375;SDS011;14844;51.302;6.354;2022-12-10T14:35:19;140.25;;;62.33;;
27375;SDS011;14844;51.302;6.354;2022-12-10T14:38:00;145.43;;;64.32;;
27375;SDS011;14844;51.302;6.354;2022-12-10T14:42:52;139.02;;;63.33;;
27375;SDS011;14844;51.302;6.354;2022-12-10T14:45:25;138.15;;;62.75;;
27375;SDS011;14844;51.302;6.354;2022-12-10T14:47:56;139.38;;;61.10;;
27375;SDS011;14844;51.302;6.354;2022-12-10T14:50:25;136.40;;;58.45;;
27375;SDS011;14844;51.302;6.354;2022-12-10T14:52:53;133.15;;;57.08;;
27375;SDS011;14844;51.302;6.354;2022-12-10T14:55:19;119.55;;;53.72;;
27375;SDS011;14844;51.302;6.354;2022-12-10T14:57:53;123.07;;;54.75;;
27375;SDS011;14844;51.302;6.354;2022-12-10T15:00:21;129.55;;;57.13;;
27375;SDS011;14844;51.302;6.354;2022-12-10T15:02:50;134.02;;;56.35;;
27375;SDS011;14844;51.302;6.354;2022-12-10T15:05:19;124.43;;;56.05;;
27375;SDS011;14844;51.302;6.354;2022-12-10T15:08:00;134.38;;;58.13;;
27375;SDS011;14844;51.302;6.354;2022-12-10T15:10:40;138.75;;;58.15;;
27375;SDS011;14844;51.302;6.354;2022-12-10T15:13:17;128.35;;;54.85;;
27375;SDS011;14844;51.302;6.354;2022-12-10T15:16:04;133.13;;;56.40;;
27375;SDS011;14844;51.302;6.354;2022-12-10T15:18:31;136.32;;;58.28;;
27375;SDS011;14844;51.302;6.354;2022-12-10T15:21:10;134.20;;;56.40;;
27375;SDS011;14844;51.302;6.354;2022-12-10T15:23:42;140.13;;;59.63;;
27375;SDS011;14844;51.302;6.354;2022-12-10T15:26:13;141.73;;;58.50;;
27375;SDS011;14844;51.302;6.354;2022-12-10T15:28:50;136.90;;;57.13;;
27375;SDS011;14844;51.302;6.354;2022-12-10T15:31:28;144.82;;;58.75;;
27375;SDS011;14844;51.302;6.354;2022-12-10T15:36:36;135.27;;;57.03;;
27375;SDS011;14844;51.302;6.354;2022-12-10T15:41:48;140.75;;;58.10;;
27375;SDS011;14844;51.302;6.354;2022-12-10T15:46:51;141.70;;;56.17;;
27375;SDS011;14844;51.302;6.354;2022-12-10T15:49:36;129.80;;;52.30;;
27375;SDS011;14844;51.302;6.354;2022-12-10T15:52:02;134.20;;;53.67;;
27375;SDS011;14844;51.302;6.354;2022-12-10T15:54:35;146.68;;;56.20;;
27375;SDS011;14844;51.302;6.354;2022-12-10T15:57:15;140.32;;;55.60;;
27375;SDS011;14844;51.302;6.354;2022-12-10T15:59:49;136.68;;;53.00;;
27375;SDS011;14844;51.302;6.354;2022-12-10T16:02:24;121.05;;;51.20;;
27375;SDS011;14844;51.302;6.354;2022-12-10T16:05:18;141.52;;;56.10;;
27375;SDS011;14844;51.302;6.354;2022-12-10T16:07:48;134.27;;;53.80;;
27375;SDS011;14844;51.302;6.354;2022-12-10T16:10:16;123.50;;;51.28;;
27375;SDS011;14844;51.302;6.354;2022-12-10T16:12:43;131.35;;;51.13;;
27375;SDS011;14844;51.302;6.354;2022-12-10T16:15:15;121.63;;;51.42;;
27375;SDS011;14844;51.302;6.354;2022-12-10T16:17:43;123.53;;;52.10;;
27375;SDS011;14844;51.302;6.354;2022-12-10T16:20:44;120.70;;;52.00;;
27375;SDS011;14844;51.302;6.354;2022-12-10T16:23:02;125.47;;;50.97;;
27375;SDS011;14844;51.302;6.354;2022-12-10T16:25:30;148.18;;;60.67;;
27375;SDS011;14844;51.302;6.354;2022-12-10T16:27:57;128.75;;;51.42;;
27375;SDS011;14844;51.302;6.354;2022-12-10T16:30:24;122.55;;;48.28;;
27375;SDS011;14844;51.302;6.354;2022-12-10T16:32:57;122.88;;;48.70;;